Time;durP1;ratioP1;P1;durP2;ratioP2;P2;SDS_P1;SDS_P2;PMS_P1;PMS_P2;Temp;Humidity;BMP_temperature;BMP_pressure;BME280_temperature;BME280_humidity;BME280_pressure;Samples;Min_cycle;Max_cycle;Signal;HPM_P1;HPM_P2
2022/01/03 00:01:40;;;;;;;11.02;7.57;;;;;;;28.74;48.47;101094.63;5009355;28;66092;-42
2022/01/03 00:04:13;;;;;;;8.07;6.88;;;;;;;28.98;48.79;101127.56;5012814;28;70033;-40
2022/01/03 00:06:44;;;;;;;10.07;7.10;;;;;;;28.99;48.77;101134.63;5011682;28;65119;-41
2022/01/03 00:09:16;;;;;;;13.38;7.53;;;;;;;29.00;49.29;101134.41;5013785;28;69937;-40
2022/01/03 00:11:49;;;;;;;16.10;7.90;;;;;;;29.06;49.01;101132.78;5010916;28;66713;-42
2022/01/03 00:14:22;;;;;;;30.92;7.75;;;;;;;29.09;49.37;101137.81;5016694;28;69324;-41
2022/01/03 00:16:52;;;;;;;41.67;8.45;;;;;;;29.11;49.54;101136.59;5001840;28;65830;-41
2022/01/03 00:19:24;;;;;;;20.88;9.30;;;;;;;29.18;50.90;101144.72;5016624;28;69994;-41
2022/01/03 00:21:58;;;;;;;24.30;10.80;;;;;;;29.03;53.07;101114.25;5019044;28;65741;-41
2022/01/03 00:24:32;;;;;;;19.10;10.50;;;;;;;29.29;53.68;101149.53;5017794;28;70025;-41
2022/01/03 00:27:15;;;;;;;24.10;11.35;;;;;;;29.28;55.02;101153.28;5011895;28;66066;-40
2022/01/03 00:29:50;;;;;;;35.42;12.13;;;;;;;29.39;54.05;101165.34;5018175;28;70423;-40
2022/01/03 00:32:22;;;;;;;17.80;12.07;;;;;;;29.42;53.91;101172.19;5018238;28;65505;-40
2022/01/03 00:34:55;;;;;;;31.65;15.32;;;;;;;29.34;54.99;101157.84;5018127;28;70301;-41
2022/01/03 00:37:35;;;;;;;39.60;18.27;;;;;;;29.33;55.34;101171.56;5011577;28;65499;-41
2022/01/03 00:40:07;;;;;;;32.20;18.92;;;;;;;29.28;56.51;101174.88;5018194;28;69706;-45
2022/01/03 00:42:38;;;;;;;49.50;19.42;;;;;;;29.22;55.67;101186.47;5015704;28;65823;-41
2022/01/03 00:45:10;;;;;;;34.55;18.80;;;;;;;29.05;57.03;101175.19;5018472;28;69684;-42
2022/01/03 00:47:40;;;;;;;44.97;21.73;;;;;;;29.13;58.24;101198.50;5021667;28;66742;-41
2022/01/03 00:50:18;;;;;;;50.28;20.50;;;;;;;29.15;59.07;101204.53;5012858;28;70127;-39
2022/01/03 00:52:50;;;;;;;39.95;18.58;;;;;;;29.18;59.85;101218.47;5011396;28;66664;-39
2022/01/03 00:55:20;;;;;;;32.67;16.92;;;;;;;29.17;58.86;101216.00;5011080;28;69397;-39
2022/01/03 00:58:07;;;;;;;33.47;16.40;;;;;;;29.27;59.80;101224.53;5016554;28;65286;-39
2022/01/03 01:00:40;;;;;;;34.10;17.23;;;;;;;29.31;59.18;101228.50;5019982;28;70404;-40
2022/01/03 01:03:20;;;;;;;28.83;18.00;;;;;;;29.13;60.16;101188.53;5016847;28;65663;-38
2022/01/03 01:05:54;;;;;;;26.67;16.58;;;;;;;29.40;58.27;101227.31;5014573;28;69365;-38
2022/01/03 01:08:26;;;;;;;34.35;17.77;;;;;;;29.39;58.41;101230.19;5016224;28;66076;-39
2022/01/03 01:10:59;;;;;;;;;;;;;;;29.22;60.54;101243.22;5018194;28;69468;-40
2022/01/03 01:13:30;;;;;;;26.20;15.85;;;;;;;29.50;58.72;101234.19;5000600;28;66715;-39
2022/01/03 01:16:05;;;;;;;30.00;18.08;;;;;;;29.38;58.70;101207.75;5012646;28;69785;-38
2022/01/03 01:18:44;;;;;;;36.83;18.02;;;;;;;29.63;58.46;101245.06;4996513;28;66939;-41
2022/01/03 01:21:15;;;;;;;31.52;17.50;;;;;;;29.65;59.13;101248.41;5027615;28;70131;-39
2022/01/03 01:23:50;;;;;;;34.70;18.05;;;;;;;29.71;59.29;101249.47;5011126;28;66043;-39
2022/01/03 01:29:11;;;;;;;34.55;20.40;;;;;;;29.75;59.16;101248.84;5029655;28;66004;-39
2022/01/03 01:31:48;;;;;;;32.78;18.27;;;;;;;29.79;60.08;101252.00;5013621;28;71309;-41
2022/01/03 01:34:27;;;;;;;32.40;16.35;;;;;;;29.63;58.96;101220.75;5015848;28;66693;-42
2022/01/03 01:37:01;;;;;;;23.45;16.08;;;;;;;29.64;59.22;101227.81;5014783;28;70024;-42
2022/01/03 01:39:38;;;;;;;24.10;15.30;;;;;;;29.84;59.00;101255.75;5014542;28;65666;-41
2022/01/03 01:42:12;;;;;;;21.85;15.10;;;;;;;29.84;59.54;101249.50;5004529;28;69366;-41
2022/01/03 01:44:49;;;;;;;18.15;15.10;;;;;;;29.67;59.62;101213.91;5008834;28;66126;-41
2022/01/03 01:47:26;;;;;;;20.75;15.70;;;;;;;29.67;58.89;101216.63;5010055;28;70044;-41
2022/01/03 01:50:04;;;;;;;17.30;14.55;;;;;;;29.92;59.91;101249.34;5012832;28;65615;-41
2022/01/03 01:52:37;;;;;;;17.60;14.55;;;;;;;29.74;59.13;101212.03;5013291;28;68853;-41
2022/01/03 01:55:12;;;;;;;18.55;14.40;;;;;;;29.95;59.61;101243.50;5014468;28;66105;-41
2022/01/03 01:58:06;;;;;;;21.20;15.05;;;;;;;29.95;59.98;101245.34;4998243;28;69712;-41
2022/01/03 02:00:55;;;;;;;16.73;14.07;;;;;;;29.92;59.53;101226.84;5009304;28;65347;-41
2022/01/03 02:03:44;;;;;;;17.02;14.13;;;;;;;29.97;59.90;101238.69;5013018;28;69176;-41
2022/01/03 02:06:21;;;;;;;17.98;13.57;;;;;;;29.98;60.08;101239.56;5012251;28;66216;-42
2022/01/03 02:09:20;;;;;;;17.13;14.25;;;;;;;29.91;60.32;101242.22;5013427;28;69913;-41
2022/01/03 02:11:54;;;;;;;16.55;13.93;;;;;;;30.02;59.85;101227.28;5014374;28;66317;-41
2022/01/03 02:14:36;;;;;;;15.93;13.35;;;;;;;29.98;59.59;101218.75;5015117;28;69196;-43
2022/01/03 02:17:12;;;;;;;13.10;12.00;;;;;;;30.01;59.22;101222.91;5015609;28;65718;-41
2022/01/03 02:20:04;;;;;;;20.33;14.02;;;;;;;29.71;60.38;101180.00;5018213;28;69700;-41
2022/01/03 02:22:40;;;;;;;20.35;13.75;;;;;;;29.83;59.68;101189.16;5023292;28;65783;-40
2022/01/03 02:25:16;;;;;;;18.30;12.82;;;;;;;29.84;59.29;101190.84;5009120;28;70255;-41
2022/01/03 02:27:51;;;;;;;14.85;12.07;;;;;;;29.88;59.56;101190.44;5016077;28;66474;-42
2022/01/03 02:30:30;;;;;;;15.25;11.82;;;;;;;30.10;60.50;101227.06;4993423;28;69928;-42
2022/01/03 02:33:01;;;;;;;15.50;11.65;;;;;;;30.08;59.41;101214.78;5007856;28;66589;-41
2022/01/03 02:35:41;;;;;;;14.07;12.07;;;;;;;30.12;60.93;101213.34;5017624;28;69768;-42
2022/01/03 02:38:15;;;;;;;13.30;11.98;;;;;;;30.14;60.25;101220.19;5016727;28;65787;-41
2022/01/03 02:40:48;;;;;;;13.45;12.05;;;;;;;30.18;60.32;101210.63;5015253;28;69711;-41
2022/01/03 02:43:20;;;;;;;11.65;10.63;;;;;;;30.15;60.11;101202.94;5018576;28;65663;-41
2022/01/03 02:45:50;;;;;;;17.23;10.95;;;;;;;30.19;60.43;101209.59;5015911;28;70179;-41
2022/01/03 02:48:22;;;;;;;16.10;10.35;;;;;;;30.18;59.58;101202.53;5013577;28;66238;-42
2022/01/03 02:50:55;;;;;;;10.70;9.90;;;;;;;30.24;59.55;101200.88;5014911;28;70252;-41
2022/01/03 02:53:26;;;;;;;11.85;10.55;;;;;;;30.24;60.11;101199.00;5018785;28;66362;-41
2022/01/03 02:55:57;;;;;;;11.68;10.23;;;;;;;30.28;60.38;101200.28;5015990;28;70082;-42
2022/01/03 02:58:28;;;;;;;11.43;10.30;;;;;;;30.28;60.22;101197.56;4996651;28;65712;-41
2022/01/03 03:00:58;;;;;;;11.93;10.02;;;;;;;30.32;60.41;101191.75;5010665;28;69260;-41
2022/01/03 03:03:40;;;;;;;11.05;9.95;;;;;;;30.32;60.26;101183.63;5007156;28;66380;-41
2022/01/03 03:06:10;;;;;;;11.38;10.30;;;;;;;30.32;59.93;101176.31;5005609;28;71476;-43
2022/01/03 03:08:42;;;;;;;11.10;9.85;;;;;;;30.37;60.32;101184.66;4989621;28;65236;-42
2022/01/03 03:11:13;;;;;;;10.88;9.52;;;;;;;30.37;59.67;101178.38;5012836;28;70025;-40
2022/01/03 03:13:44;;;;;;;15.05;11.10;;;;;;;30.34;60.15;101159.84;5015714;28;65944;-42
2022/01/03 03:16:14;;;;;;;11.23;9.57;;;;;;;30.43;59.91;101174.84;5014680;28;70261;-41
2022/01/03 03:18:46;;;;;;;11.80;9.73;;;;;;;30.42;59.44;101162.34;5014099;28;66119;-41
2022/01/03 03:21:16;;;;;;;11.65;10.45;;;;;;;30.40;59.70;101159.88;5011979;28;69611;-41
2022/01/03 03:23:48;;;;;;;10.75;9.73;;;;;;;30.47;59.88;101162.56;4996513;28;65671;-42
2022/01/03 03:26:19;;;;;;;15.02;9.32;;;;;;;30.50;59.87;101159.41;5010385;28;70541;-41
2022/01/03 03:28:50;;;;;;;10.73;9.63;;;;;;;30.49;59.77;101155.06;5006550;28;66073;-42
2022/01/03 03:31:20;;;;;;;9.90;9.10;;;;;;;30.46;59.43;101139.25;5007665;28;70200;-41
2022/01/03 03:33:51;;;;;;;12.40;9.50;;;;;;;30.53;59.26;101140.03;5007654;28;66751;-41
2022/01/03 03:36:22;;;;;;;10.80;9.70;;;;;;;30.56;59.35;101134.19;5017260;28;70514;-42
2022/01/03 03:38:52;;;;;;;12.02;8.70;;;;;;;30.55;59.69;101135.25;5013426;28;65663;-41
2022/01/03 03:41:23;;;;;;;10.63;9.65;;;;;;;30.55;59.30;101127.13;4995866;28;70025;-41
2022/01/03 03:43:57;;;;;;;10.02;9.02;;;;;;;30.57;59.35;101125.06;5013246;28;65482;-41
2022/01/03 03:46:27;;;;;;;9.07;8.35;;;;;;;30.61;59.67;101120.88;5013882;28;68956;-42
2022/01/03 03:48:58;;;;;;;10.73;9.68;;;;;;;30.62;59.12;101116.28;5013398;28;66647;-41
2022/01/03 03:51:29;;;;;;;11.25;9.73;;;;;;;30.63;59.15;101113.38;5014906;28;69783;-41
2022/01/03 03:54:00;;;;;;;11.15;9.38;;;;;;;30.65;59.36;101105.06;5016849;28;65746;-42
2022/01/03 03:56:31;;;;;;;9.95;8.00;;;;;;;30.65;59.44;101100.47;5012083;28;70743;-41
2022/01/03 03:59:02;;;;;;;8.45;7.85;;;;;;;30.57;59.56;101076.31;5010494;28;66332;-42
2022/01/03 04:01:34;;;;;;;9.02;8.13;;;;;;;30.73;59.41;101102.09;5006878;28;69332;-41
2022/01/03 04:04:06;;;;;;;10.07;8.98;;;;;;;30.75;59.52;101094.56;5012311;28;67379;-41
2022/01/03 04:06:36;;;;;;;10.20;8.32;;;;;;;30.73;59.34;101083.16;5009787;28;69807;-41
2022/01/03 04:09:07;;;;;;;9.15;8.23;;;;;;;30.79;59.12;101086.88;5005704;28;66208;-42
2022/01/03 04:11:38;;;;;;;9.38;8.55;;;;;;;30.81;58.99;101085.63;5023262;28;69943;-40
2022/01/03 04:14:09;;;;;;;8.10;7.57;;;;;;;30.80;58.88;101081.25;5015488;28;65818;-41
2022/01/03 04:16:40;;;;;;;9.38;8.27;;;;;;;30.85;59.05;101083.34;5012767;28;69726;-43
2022/01/03 04:19:11;;;;;;;9.63;8.63;;;;;;;30.88;59.21;101080.19;5015602;28;66015;-42
2022/01/03 04:21:41;;;;;;;12.73;8.63;;;;;;;30.84;58.96;101070.81;5013893;28;68906;-41
2022/01/03 04:24:12;;;;;;;11.50;8.52;;;;;;;30.92;58.98;101067.88;5004787;28;65423;-42
2022/01/03 04:26:45;;;;;;;11.50;9.17;;;;;;;30.91;59.46;101060.78;4994420;28;69581;-43
2022/01/03 04:29:16;;;;;;;12.13;8.30;;;;;;;30.93;58.92;101048.69;4997131;28;66008;-43
2022/01/03 04:31:47;;;;;;;9.00;8.10;;;;;;;30.98;59.59;101050.75;5013940;28;70716;-42
2022/01/03 04:34:17;;;;;;;9.82;8.75;;;;;;;30.99;59.66;101041.59;5014294;28;65675;-42
2022/01/03 04:36:48;;;;;;;9.07;8.20;;;;;;;31.01;59.70;101044.06;5012660;28;70350;-41
2022/01/03 04:39:19;;;;;;;14.43;8.52;;;;;;;30.97;60.30;101021.16;4992171;28;66586;-43
2022/01/03 04:41:50;;;;;;;11.70;8.43;;;;;;;31.04;60.52;101033.63;5016360;28;68885;-42
2022/01/03 04:44:21;;;;;;;9.00;8.07;;;;;;;31.04;60.59;101022.81;5006026;28;66039;-41
2022/01/03 04:46:53;;;;;;;8.82;8.10;;;;;;;31.08;60.59;101024.00;5022715;28;69199;-41
2022/01/03 04:49:24;;;;;;;10.38;8.55;;;;;;;31.10;60.93;101021.91;5010441;28;65827;-41
2022/01/03 04:51:55;;;;;;;9.45;7.65;;;;;;;31.12;60.64;101016.25;5014143;28;68873;-40
2022/01/03 04:54:25;;;;;;;8.90;8.00;;;;;;;31.14;60.84;101009.59;4995973;28;67031;-41
2022/01/03 04:56:59;;;;;;;8.60;7.77;;;;;;;31.12;61.20;100998.16;5014995;28;70302;-41
2022/01/03 04:59:32;;;;;;;9.82;8.05;;;;;;;31.16;61.37;100999.34;5016436;28;65361;-41
2022/01/03 05:02:04;;;;;;;9.20;7.67;;;;;;;31.19;61.65;100991.84;5015921;28;68754;-41
2022/01/03 05:04:36;;;;;;;12.30;8.20;;;;;;;31.19;61.20;100983.72;5016026;28;66280;-43
2022/01/03 05:07:06;;;;;;;8.73;7.57;;;;;;;31.22;61.32;100980.56;4997172;28;70266;-41
2022/01/03 05:09:37;;;;;;;7.60;6.82;;;;;;;31.24;61.61;100973.06;5016808;28;66212;-41
2022/01/03 05:12:10;;;;;;;11.73;7.32;;;;;;;31.17;61.74;100956.81;5015010;28;69271;-40
2022/01/03 05:14:41;;;;;;;8.63;7.63;;;;;;;31.28;61.78;100974.25;5015243;28;66264;-42
2022/01/03 05:17:12;;;;;;;7.65;6.95;;;;;;;31.24;61.54;100962.22;5014314;28;70044;-42
2022/01/03 05:19:43;;;;;;;8.00;7.30;;;;;;;31.28;61.38;100960.72;5015495;28;66352;-41
2022/01/03 05:22:13;;;;;;;8.93;8.02;;;;;;;31.29;62.06;100959.69;5014424;28;69746;-43
2022/01/03 05:24:44;;;;;;;8.73;7.83;;;;;;;31.31;61.96;100957.56;5008614;28;66259;-40
2022/01/03 05:27:15;;;;;;;8.25;7.45;;;;;;;31.27;61.78;100950.94;5028654;28;69417;-40
2022/01/03 05:29:46;;;;;;;8.43;7.65;;;;;;;31.33;61.57;100950.88;5016297;28;65139;-40
2022/01/03 05:32:17;;;;;;;9.95;7.50;;;;;;;31.31;62.17;100941.28;5017723;28;69324;-42
2022/01/03 05:34:49;;;;;;;8.02;7.32;;;;;;;31.35;61.84;100942.53;4996609;28;64806;-41
2022/01/03 05:37:20;;;;;;;7.63;6.95;;;;;;;31.33;61.91;100929.19;5018767;28;69945;-42
2022/01/03 05:39:51;;;;;;;8.65;7.57;;;;;;;31.39;62.20;100932.91;5018334;28;65643;-41
2022/01/03 05:42:22;;;;;;;7.00;6.50;;;;;;;31.41;62.19;100933.53;5010741;28;69778;-40
2022/01/03 05:44:53;;;;;;;12.27;7.97;;;;;;;31.36;61.66;100923.34;5000098;28;65764;-42
2022/01/03 05:47:24;;;;;;;9.23;8.10;;;;;;;31.31;61.39;100912.31;5003710;28;70520;-42
2022/01/03 05:49:55;;;;;;;9.30;8.60;;;;;;;31.11;61.64;100881.84;5008933;28;65787;-41
2022/01/03 05:52:26;;;;;;;10.25;8.80;;;;;;;31.25;61.50;100906.94;5003093;28;69750;-42
2022/01/03 05:54:56;;;;;;;9.25;8.43;;;;;;;31.20;61.87;100902.19;5005409;28;67311;-41
2022/01/03 05:57:27;;;;;;;12.45;8.80;;;;;;;31.20;61.56;100901.38;5012826;28;70042;-41
2022/01/03 05:59:59;;;;;;;9.30;7.70;;;;;;;31.19;62.44;100899.72;5010298;28;65575;-41
2022/01/03 06:02:38;;;;;;;8.13;7.20;;;;;;;31.09;61.93;100883.94;4999292;28;43960;-41
2022/01/03 06:05:19;;;;;;;7.95;7.25;;;;;;;31.09;62.26;100876.66;5011076;28;66768;-41
2022/01/03 06:07:50;;;;;;;10.40;8.98;;;;;;;31.01;62.01;100854.41;5015556;28;69972;-40
2022/01/03 06:10:25;;;;;;;9.25;7.80;;;;;;;31.13;62.19;100855.38;5014741;28;66328;-40
2022/01/03 06:12:56;;;;;;;9.77;8.20;;;;;;;31.10;62.45;100859.34;5015697;28;68863;-42
2022/01/03 06:15:28;;;;;;;7.68;6.93;;;;;;;31.12;62.45;100853.69;5016436;28;66694;-41
2022/01/03 06:17:58;;;;;;;9.80;7.43;;;;;;;31.13;62.10;100848.06;5011301;28;69560;-40
2022/01/03 06:20:31;;;;;;;11.20;8.45;;;;;;;31.15;62.49;100850.56;5007870;28;67204;-41
2022/01/03 06:23:03;;;;;;;10.85;7.40;;;;;;;31.15;62.22;100839.72;5020780;28;70538;-40
2022/01/03 06:25:33;;;;;;;8.40;7.43;;;;;;;31.12;62.38;100832.88;5009508;28;65563;-41
2022/01/03 06:28:07;;;;;;;8.40;7.77;;;;;;;31.10;62.22;100826.84;5019711;28;69792;-43
2022/01/03 06:30:43;;;;;;;10.98;7.15;;;;;;;31.15;62.60;100832.41;5015829;28;65872;-43
2022/01/03 06:33:14;;;;;;;7.22;6.82;;;;;;;31.21;62.57;100827.16;5032777;28;70334;-41
2022/01/03 06:35:44;;;;;;;8.77;7.43;;;;;;;31.26;62.64;100825.44;5016011;28;65606;-42
2022/01/03 06:38:15;;;;;;;7.97;7.47;;;;;;;31.05;62.42;100775.19;5017329;28;70075;-40
2022/01/03 06:40:46;;;;;;;7.45;6.90;;;;;;;31.38;62.32;100823.66;5015690;28;66211;-40
2022/01/03 06:43:16;;;;;;;7.65;6.85;;;;;;;31.44;62.56;100823.81;5021517;28;69017;-40
2022/01/03 06:45:47;;;;;;;8.32;7.53;;;;;;;31.47;62.04;100816.06;5018121;28;67619;-40
2022/01/03 06:48:18;;;;;;;8.38;7.28;;;;;;;31.53;62.17;100817.84;5017067;28;70626;-40
2022/01/03 06:50:50;;;;;;;8.93;7.68;;;;;;;31.55;62.36;100813.03;5009780;28;65936;-40
2022/01/03 06:53:20;;;;;;;7.65;6.88;;;;;;;31.61;62.08;100822.97;5003290;28;69826;-40
2022/01/03 06:55:51;;;;;;;7.22;6.53;;;;;;;31.64;62.18;100812.75;5006854;28;64379;-40
2022/01/03 06:58:22;;;;;;;9.27;7.13;;;;;;;31.69;61.88;100808.28;5018625;28;71110;-41
2022/01/03 07:00:54;;;;;;;7.95;7.05;;;;;;;31.71;61.63;100806.19;5016608;28;66202;-41
2022/01/03 07:03:25;;;;;;;8.07;7.43;;;;;;;31.75;61.92;100793.81;5016973;28;69967;-41
2022/01/03 07:05:55;;;;;;;7.75;7.15;;;;;;;31.78;61.78;100793.34;5017168;28;66274;-41
2022/01/03 07:08:26;;;;;;;7.47;6.85;;;;;;;31.75;61.51;100782.13;5001138;28;70389;-41
2022/01/03 07:10:56;;;;;;;8.07;7.07;;;;;;;31.79;61.31;100796.91;5017206;28;65439;-41
2022/01/03 07:13:31;;;;;;;10.50;7.90;;;;;;;31.85;61.38;100796.00;5017098;28;70003;-41
2022/01/03 07:18:56;;;;;;;8.45;7.47;;;;;;;31.91;60.98;100800.53;5014381;28;69011;-42
2022/01/03 07:21:29;;;;;;;8.88;7.93;;;;;;;31.96;61.08;100794.44;5012592;28;65611;-40
2022/01/03 07:24:01;;;;;;;11.15;8.10;;;;;;;31.96;60.78;100799.84;5015662;28;70519;-40
2022/01/03 07:26:31;;;;;;;9.25;8.30;;;;;;;31.92;61.23;100785.91;5018224;28;65566;-41
2022/01/03 07:29:02;;;;;;;8.30;7.53;;;;;;;31.94;60.52;100791.94;5017099;28;69633;-40
2022/01/03 07:31:32;;;;;;;8.20;7.53;;;;;;;31.99;60.70;100796.69;5015838;28;67794;-41
2022/01/03 07:34:03;;;;;;;7.93;7.25;;;;;;;32.01;60.67;100784.53;5013534;28;70529;-41
2022/01/03 07:36:34;;;;;;;7.90;7.20;;;;;;;32.03;60.70;100793.25;5016063;28;66733;-41
2022/01/03 07:39:04;;;;;;;7.97;7.30;;;;;;;32.01;60.82;100776.41;5011039;28;71854;-42
2022/01/03 07:41:35;;;;;;;8.27;7.50;;;;;;;32.05;60.59;100784.91;5018124;28;65583;-40
2022/01/03 07:44:06;;;;;;;9.43;8.15;;;;;;;32.03;60.83;100781.56;5016806;28;70362;-40
2022/01/03 07:46:37;;;;;;;9.93;8.18;;;;;;;32.09;60.51;100777.94;5015984;28;66690;-41
2022/01/03 07:49:07;;;;;;;8.88;7.88;;;;;;;32.10;60.46;100778.78;5016715;28;71181;-41
2022/01/03 07:51:38;;;;;;;11.40;8.43;;;;;;;32.07;60.34;100776.50;5010749;28;66331;-40
2022/01/03 07:54:09;;;;;;;10.10;8.48;;;;;;;32.15;60.12;100787.03;5004185;28;69603;-40
2022/01/03 07:56:39;;;;;;;9.55;8.63;;;;;;;32.16;60.51;100791.44;5007020;28;66340;-40
2022/01/03 07:59:10;;;;;;;10.65;8.40;;;;;;;32.15;60.48;100777.03;5010828;28;70251;-40
2022/01/03 08:01:40;;;;;;;9.27;8.35;;;;;;;32.17;60.36;100776.78;5010040;28;65932;-41
2022/01/03 08:04:12;;;;;;;9.45;8.65;;;;;;;32.20;60.19;100779.84;5016661;28;70376;-41
2022/01/03 08:06:47;;;;;;;10.80;9.25;;;;;;;32.18;59.92;100773.84;5013204;28;66792;-40
2022/01/03 08:09:18;;;;;;;12.20;9.52;;;;;;;32.23;60.16;100782.13;5014570;28;70123;-42
2022/01/03 08:11:50;;;;;;;10.88;9.48;;;;;;;32.25;60.20;100779.16;5015288;28;65806;-40
2022/01/03 08:14:21;;;;;;;10.82;9.82;;;;;;;32.25;59.92;100774.56;5009456;28;70152;-42
2022/01/03 08:16:51;;;;;;;10.52;9.55;;;;;;;32.13;60.25;100760.16;5015233;28;66464;-42
2022/01/03 08:19:22;;;;;;;14.27;9.82;;;;;;;32.25;59.85;100773.75;5012267;28;69889;-41
2022/01/03 08:21:53;;;;;;;22.05;9.77;;;;;;;32.28;59.95;100784.13;5010386;28;66352;-41
2022/01/03 08:24:24;;;;;;;10.55;9.23;;;;;;;32.25;59.97;100780.00;5016300;28;71330;-41
2022/01/03 08:26:54;;;;;;;10.93;9.82;;;;;;;32.26;59.86;100775.38;5009586;28;66236;-40
2022/01/03 08:29:25;;;;;;;12.63;9.85;;;;;;;32.28;59.48;100781.41;5014180;28;70314;-41
2022/01/03 08:31:55;;;;;;;11.82;10.52;;;;;;;32.28;59.77;100784.13;5015616;28;66350;-41
2022/01/03 08:34:27;;;;;;;12.10;10.10;;;;;;;32.21;59.62;100773.38;5009673;28;70357;-41
2022/01/03 08:37:01;;;;;;;12.57;9.80;;;;;;;32.28;59.55;100784.13;4997249;28;66055;-41
2022/01/03 08:39:32;;;;;;;10.88;9.95;;;;;;;32.31;59.61;100799.13;5005205;28;69871;-41
2022/01/03 08:42:04;;;;;;;11.13;10.02;;;;;;;32.27;59.57;100790.63;5014063;28;65986;-40
2022/01/03 08:44:34;;;;;;;10.73;9.90;;;;;;;32.28;59.66;100795.81;5015531;28;70259;-41
2022/01/03 08:47:05;;;;;;;10.30;9.27;;;;;;;32.28;59.75;100795.00;5016115;28;66300;-40
2022/01/03 08:49:36;;;;;;;11.33;10.13;;;;;;;32.28;59.76;100798.53;5011169;28;69932;-40
2022/01/03 08:52:07;;;;;;;10.90;9.90;;;;;;;32.28;59.71;100797.69;5007633;28;66956;-40
2022/01/03 08:54:37;;;;;;;11.65;10.32;;;;;;;32.28;59.21;100808.56;5024591;28;69253;-41
2022/01/03 08:57:08;;;;;;;13.50;10.73;;;;;;;32.25;59.55;100800.88;5011341;28;65377;-40
2022/01/03 08:59:39;;;;;;;12.68;11.10;;;;;;;32.29;59.54;100810.22;5012229;28;70188;-41
2022/01/03 09:02:10;;;;;;;11.25;10.23;;;;;;;32.26;59.57;100810.66;5014066;28;67062;-40
2022/01/03 09:04:41;;;;;;;10.82;9.70;;;;;;;32.28;59.19;100811.28;5010805;28;70920;-40
2022/01/03 09:07:12;;;;;;;12.55;11.27;;;;;;;32.30;59.57;100814.59;5016724;28;66373;-41
2022/01/03 09:09:42;;;;;;;12.87;11.50;;;;;;;32.24;59.56;100804.66;5017261;28;70128;-40
2022/01/03 09:12:13;;;;;;;12.32;10.93;;;;;;;32.26;59.39;100807.97;5012893;28;65843;-40
2022/01/03 09:14:44;;;;;;;13.05;11.82;;;;;;;32.28;59.47;100817.53;5013457;28;70497;-40
2022/01/03 09:17:14;;;;;;;14.32;11.90;;;;;;;32.25;59.31;100811.75;5008288;28;66090;-40
2022/01/03 09:19:45;;;;;;;15.95;12.90;;;;;;;32.27;59.50;100821.31;5017808;28;69591;-40
2022/01/03 09:22:25;;;;;;;13.93;12.57;;;;;;;32.27;59.23;100828.63;5018325;28;65284;-41
2022/01/03 09:30:21;;;;;;;15.98;13.77;;;;;;;32.26;59.48;100833.25;5018196;28;69681;-40
2022/01/03 09:32:51;;;;;;;14.18;12.93;;;;;;;32.27;59.30;100839.50;5034567;28;66504;-42
2022/01/03 09:35:22;;;;;;;14.40;12.98;;;;;;;32.22;59.00;100842.06;5016961;28;70157;-40
2022/01/03 09:37:53;;;;;;;16.23;13.23;;;;;;;32.27;59.26;100847.63;5018456;28;66898;-40
2022/01/03 09:40:23;;;;;;;19.55;14.00;;;;;;;32.22;58.90;100842.06;5019914;28;69809;-40
2022/01/03 09:42:58;;;;;;;20.95;14.68;;;;;;;32.19;59.10;100835.22;5016008;28;66355;-40
2022/01/03 09:45:34;;;;;;;19.15;14.45;;;;;;;32.25;59.01;100849.75;5016649;28;70006;-40
2022/01/03 09:48:07;;;;;;;21.88;14.48;;;;;;;32.24;58.93;100848.09;5013055;28;66178;-40
2022/01/03 09:50:37;;;;;;;22.70;15.13;;;;;;;32.23;59.04;100854.56;4999907;28;70289;-41
2022/01/03 09:53:10;;;;;;;19.45;14.63;;;;;;;32.21;59.16;100859.41;5009100;28;66692;-42
2022/01/03 09:55:42;;;;;;;18.00;14.73;;;;;;;32.11;59.07;100845.56;5020264;28;70236;-48
2022/01/03 09:58:25;;;;;;;20.92;15.60;;;;;;;32.23;58.72;100868.13;5013497;28;66449;-41
2022/01/03 10:01:04;;;;;;;15.80;14.13;;;;;;;32.19;59.37;100870.50;5015739;28;69993;-41
2022/01/03 10:03:36;;;;;;;23.02;15.48;;;;;;;32.20;59.08;100874.84;5015613;28;65943;-41
2022/01/03 10:06:29;;;;;;;17.38;15.02;;;;;;;32.10;59.25;100854.78;5016811;28;70357;-41
2022/01/03 10:09:09;;;;;;;20.65;15.00;;;;;;;32.16;59.06;100875.56;5013605;28;65707;-40
2022/01/03 10:11:40;;;;;;;21.33;14.80;;;;;;;32.18;59.38;100881.56;5016462;28;69282;-41
2022/01/03 10:14:13;;;;;;;22.90;14.82;;;;;;;32.15;58.87;100884.72;5007255;28;65150;-40
2022/01/03 10:16:46;;;;;;;20.40;14.95;;;;;;;32.17;59.12;100879.91;5011319;28;70412;-41
2022/01/03 10:19:25;;;;;;;19.60;14.87;;;;;;;32.15;59.16;100884.72;5017366;28;65876;-40
2022/01/03 10:22:07;;;;;;;19.23;14.87;;;;;;;32.11;58.71;100886.25;5026375;28;70553;-40
2022/01/03 10:24:37;;;;;;;22.60;15.68;;;;;;;32.08;59.20;100881.28;5014291;28;65260;-42
2022/01/03 10:27:08;;;;;;;19.95;15.18;;;;;;;32.13;59.42;100900.44;5011342;28;69330;-42
2022/01/03 10:29:40;;;;;;;20.63;15.20;;;;;;;32.11;59.60;100897.94;5020226;28;65376;-40
2022/01/03 10:32:12;;;;;;;20.77;15.15;;;;;;;31.70;59.27;100841.66;5019853;28;70579;-41
2022/01/03 10:34:42;;;;;;;23.67;15.05;;;;;;;32.12;59.00;100913.16;5020167;28;66164;-41
2022/01/03 10:37:13;;;;;;;25.30;14.95;;;;;;;32.13;59.76;100916.72;5020650;28;69919;-40
2022/01/03 10:39:44;;;;;;;21.40;15.80;;;;;;;32.12;59.24;100917.75;5021916;28;66508;-41
2022/01/03 10:42:15;;;;;;;;;;;;;;;31.89;59.56;100930.09;5019916;28;70147;-42
2022/01/03 10:44:47;;;;;;;33.83;19.20;;;;;;;32.11;58.51;100935.09;5021543;28;66490;-42
2022/01/03 10:47:32;;;;;;;37.13;19.30;;;;;;;31.85;57.56;100899.06;5017970;28;70300;-41
2022/01/03 10:50:16;;;;;;;42.70;21.20;;;;;;;31.97;57.48;100929.00;5016207;28;66742;-41
2022/01/03 10:52:48;;;;;;;54.70;22.60;;;;;;;32.11;58.62;100960.34;5014567;28;70413;-41
2022/01/03 10:55:23;;;;;;;50.30;25.20;;;;;;;32.10;59.11;100955.16;5017252;28;65290;-42
2022/01/03 10:57:57;;;;;;;52.03;24.55;;;;;;;31.85;59.32;100915.34;5017191;28;69650;-41
2022/01/03 11:00:33;;;;;;;52.75;24.90;;;;;;;31.84;59.65;100916.38;5001982;28;66541;-41
2022/01/03 11:03:29;;;;;;;46.53;25.30;;;;;;;32.02;60.21;100954.41;5012566;28;69939;-41
2022/01/03 11:06:13;;;;;;;40.20;23.98;;;;;;;31.96;61.07;100947.19;5019954;28;66595;-41
2022/01/03 11:11:45;;;;;;;47.88;26.30;;;;;;;31.73;61.58;100939.69;5020011;28;65962;-42
2022/01/03 11:14:34;;;;;;;37.78;25.10;;;;;;;31.77;62.39;100961.75;5012420;28;68746;-42
2022/01/03 11:17:25;;;;;;;50.10;24.25;;;;;;;31.78;62.28;100974.25;5006870;28;65415;-40
2022/01/03 11:19:59;;;;;;;;;;;;;;;31.58;62.78;100985.31;5017249;28;70050;-41
2022/01/03 11:22:49;;;;;;;45.10;25.95;;;;;;;31.54;62.32;100956.97;5013150;28;65480;-41
2022/01/03 11:25:35;;;;;;;43.22;25.00;;;;;;;31.55;61.79;100959.47;5014758;28;70828;-41
2022/01/03 11:28:05;;;;;;;38.90;25.80;;;;;;;31.73;61.51;100982.22;5015344;28;67193;-41
2022/01/03 11:30:36;;;;;;;40.00;24.88;;;;;;;31.80;61.53;101004.69;5015268;28;69412;-42
2022/01/03 11:33:09;;;;;;;45.47;24.98;;;;;;;31.78;61.54;100979.69;5020010;28;65111;-41
2022/01/03 11:35:46;;;;;;;34.58;24.08;;;;;;;31.59;61.57;100954.41;5011244;28;69873;-41
2022/01/03 11:38:22;;;;;;;40.03;24.50;;;;;;;31.83;61.47;100985.25;5017590;28;65260;-43
2022/01/03 11:40:52;;;;;;;46.25;23.85;;;;;;;31.78;61.25;100985.09;5012959;28;70684;-44
2022/01/03 11:43:25;;;;;;;36.30;23.85;;;;;;;31.86;61.42;100995.66;5016894;28;65805;-41
2022/01/03 11:45:58;;;;;;;42.63;24.30;;;;;;;31.83;61.53;100988.78;5018247;28;69504;-41
2022/01/03 11:48:30;;;;;;;40.90;22.23;;;;;;;31.87;61.72;101000.03;5007889;28;66059;-42
2022/01/03 11:51:06;;;;;;;42.38;22.85;;;;;;;31.88;61.13;101001.69;5013330;28;69495;-42
2022/01/03 11:53:44;;;;;;;38.10;21.85;;;;;;;31.82;61.74;101002.59;5013720;28;66096;-41
2022/01/03 11:56:16;;;;;;;34.90;21.02;;;;;;;31.88;61.73;101004.41;5015939;28;70513;-41
2022/01/03 11:59:02;;;;;;;40.60;18.88;;;;;;;31.67;61.99;100972.28;5014425;28;65243;-41